Time;durP1;ratioP1;P1;durP2;ratioP2;P2;SDS_P1;SDS_P2;PMS_P1;PMS_P2;Temp;Humidity;BMP_temperature;BMP_pressure;BME280_temperature;BME280_humidity;BME280_pressure;Samples;Min_cycle;Max_cycle;Signal;HPM_P1;HPM_P2
2022/01/01 00:01:29;;;;;;;23.20;18.20;;;;;;;;;;4962029;28;20296;-75
2022/01/01 00:03:55;;;;;;;26.83;18.37;;;;;;;;;;4994430;28;20717;-76
2022/01/01 00:06:21;;;;;;;27.77;19.17;;;;;;;;;;4975448;28;20281;-74
2022/01/01 00:08:46;;;;;;;25.23;18.83;;;;;;;;;;4992699;28;20671;-75
2022/01/01 00:11:14;;;;;;;26.57;18.43;;;;;;;;;;4972633;28;20205;-74
2022/01/01 00:13:40;;;;;;;29.67;19.00;;;;;;;;;;4983555;28;20233;-76
2022/01/01 00:16:09;;;;;;;26.40;19.37;;;;;;;;;;4988626;28;20226;-75
2022/01/01 00:18:40;;;;;;;27.10;18.60;;;;;;;;;;4976670;28;20912;-74
2022/01/01 00:21:10;;;;;;;25.17;18.93;;;;;;;;;;4984649;28;20607;-76
2022/01/01 00:23:38;;;;;;;27.33;20.47;;;;;;;;;;4968133;28;20220;-75
2022/01/01 00:26:03;;;;;;;30.17;20.47;;;;;;;;;;4978853;28;20221;-75
2022/01/01 00:28:29;;;;;;;29.33;20.60;;;;;;;;;;4976354;28;20317;-75
2022/01/01 00:30:54;;;;;;;30.20;20.43;;;;;;;;;;4994295;28;20769;-77
2022/01/01 00:33:25;;;;;;;30.57;20.47;;;;;;;;;;4988103;28;20587;-76
2022/01/01 00:35:56;;;;;;;34.97;21.23;;;;;;;;;;4949280;28;20303;-76
2022/01/01 00:38:24;;;;;;;28.33;20.77;;;;;;;;;;4990677;28;20224;-75
2022/01/01 00:40:52;;;;;;;30.17;20.87;;;;;;;;;;4969064;28;20308;-76
2022/01/01 00:43:17;;;;;;;30.53;21.07;;;;;;;;;;4960241;28;21426;-75
2022/01/01 00:45:43;;;;;;;35.23;20.87;;;;;;;;;;4990755;28;20762;-76
2022/01/01 00:48:08;;;;;;;28.67;21.33;;;;;;;;;;4990181;28;20227;-75
2022/01/01 00:50:34;;;;;;;33.20;21.33;;;;;;;;;;4976900;28;20305;-76
2022/01/01 00:53:00;;;;;;;28.93;20.70;;;;;;;;;;4986232;28;20225;-77
2022/01/01 00:55:30;;;;;;;29.83;20.40;;;;;;;;;;4975374;28;20226;-77
2022/01/01 00:57:55;;;;;;;29.47;20.37;;;;;;;;;;5010242;28;20248;-76
2022/01/01 01:00:21;;;;;;;27.77;19.87;;;;;;;;;;4992907;28;20686;-77
2022/01/01 01:02:46;;;;;;;29.23;20.27;;;;;;;;;;4977367;28;20257;-76
2022/01/01 01:05:12;;;;;;;27.60;19.77;;;;;;;;;;4978594;28;20233;-76
2022/01/01 01:07:40;;;;;;;30.73;20.23;;;;;;;;;;4994286;28;20272;-76
2022/01/01 01:10:12;;;;;;;29.83;19.90;;;;;;;;;;4994019;28;20702;-76
2022/01/01 01:12:43;;;;;;;32.53;20.97;;;;;;;;;;4978501;28;20229;-76
2022/01/01 01:15:11;;;;;;;30.70;20.47;;;;;;;;;;4978630;28;20221;-77
2022/01/01 01:17:39;;;;;;;32.67;21.30;;;;;;;;;;4977842;28;20236;-76
2022/01/01 01:23:23;;;;;;;30.23;20.47;;;;;;;;;;4974096;28;20268;-77
2022/01/01 01:25:51;;;;;;;27.57;20.10;;;;;;;;;;4940512;28;20226;-76
2022/01/01 01:28:16;;;;;;;29.43;19.73;;;;;;;;;;4982221;28;20222;-77
2022/01/01 01:30:46;;;;;;;29.70;20.23;;;;;;;;;;4947843;29;20616;-76
2022/01/01 01:33:11;;;;;;;32.13;20.67;;;;;;;;;;4953747;28;20238;-76
2022/01/01 01:35:41;;;;;;;29.53;21.33;;;;;;;;;;4923853;29;20226;-77
2022/01/01 01:38:10;;;;;;;29.13;21.23;;;;;;;;;;4938992;28;20756;-76
2022/01/01 01:40:35;;;;;;;26.30;19.17;;;;;;;;;;4923610;29;20255;-77
2022/01/01 01:43:10;;;;;;;31.20;19.70;;;;;;;;;;4938275;29;20431;-77
2022/01/01 01:45:39;;;;;;;28.23;19.23;;;;;;;;;;4942794;29;20309;-77
2022/01/01 01:48:06;;;;;;;27.00;18.67;;;;;;;;;;4954629;28;20242;-77
2022/01/01 01:50:33;;;;;;;30.33;19.40;;;;;;;;;;4935516;29;20247;-76
2022/01/01 01:52:59;;;;;;;27.87;19.43;;;;;;;;;;4953903;28;20306;-77
2022/01/01 01:55:30;;;;;;;32.07;19.63;;;;;;;;;;4953884;28;20309;-77
2022/01/01 01:57:58;;;;;;;26.47;19.07;;;;;;;;;;4939045;29;20250;-77
2022/01/01 02:02:50;;;;;;;28.93;20.43;;;;;;;;;;4937779;28;20301;-77
2022/01/01 02:05:18;;;;;;;33.03;21.23;;;;;;;;;;4922093;28;20219;-77
2022/01/01 02:07:48;;;;;;;29.37;20.57;;;;;;;;;;4938296;28;20231;-77
2022/01/01 02:10:17;;;;;;;29.10;20.67;;;;;;;;;;4953358;28;20298;-77
2022/01/01 02:12:48;;;;;;;31.80;21.53;;;;;;;;;;4937640;29;20226;-77
2022/01/01 02:15:40;;;;;;;29.43;20.87;;;;;;;;;;4954232;28;20242;-77
2022/01/01 02:18:08;;;;;;;27.33;21.20;;;;;;;;;;4907617;28;20227;-77
2022/01/01 02:20:34;;;;;;;30.10;21.47;;;;;;;;;;4934820;29;20254;-76
2022/01/01 02:23:02;;;;;;;29.83;21.80;;;;;;;;;;4936752;29;20219;-77
2022/01/01 02:25:28;;;;;;;36.27;22.90;;;;;;;;;;4937736;29;20226;-77
2022/01/01 02:27:54;;;;;;;31.60;22.07;;;;;;;;;;4938282;29;20230;-77
2022/01/01 02:30:22;;;;;;;29.97;21.83;;;;;;;;;;4954051;28;20226;-77
2022/01/01 02:32:50;;;;;;;30.03;22.03;;;;;;;;;;4937853;29;20219;-77
2022/01/01 02:35:18;;;;;;;31.10;21.80;;;;;;;;;;4903041;28;20236;-77
2022/01/01 02:37:43;;;;;;;27.80;21.00;;;;;;;;;;4935043;29;20294;-78
2022/01/01 02:40:09;;;;;;;29.60;20.90;;;;;;;;;;4902873;28;20315;-77
2022/01/01 02:42:35;;;;;;;31.07;21.57;;;;;;;;;;4918912;29;20705;-77
2022/01/01 02:45:06;;;;;;;33.57;22.23;;;;;;;;;;4944505;28;20223;-77
2022/01/01 02:47:39;;;;;;;32.50;21.67;;;;;;;;;;4920168;29;20235;-77
2022/01/01 02:50:07;;;;;;;32.97;21.43;;;;;;;;;;4950490;28;20242;-77
2022/01/01 02:52:35;;;;;;;30.17;21.63;;;;;;;;;;4953744;28;20309;-77
2022/01/01 02:55:00;;;;;;;35.57;23.00;;;;;;;;;;4919140;29;20223;-76
2022/01/01 02:57:31;;;;;;;32.17;22.10;;;;;;;;;;4919230;28;20612;-77
2022/01/01 03:00:02;;;;;;;33.73;21.83;;;;;;;;;;4929725;29;20227;-76
2022/01/01 03:02:32;;;;;;;30.83;22.17;;;;;;;;;;4934374;28;20219;-77
2022/01/01 03:04:57;;;;;;;31.07;21.57;;;;;;;;;;4937874;29;20249;-76
2022/01/01 03:07:25;;;;;;;28.10;20.47;;;;;;;;;;4937569;28;20862;-76
2022/01/01 03:09:51;;;;;;;31.20;20.63;;;;;;;;;;4944314;28;20231;-76
2022/01/01 03:12:22;;;;;;;31.23;20.87;;;;;;;;;;4917662;28;20227;-77
2022/01/01 03:14:47;;;;;;;32.37;21.20;;;;;;;;;;4943953;28;20310;-77
2022/01/01 03:17:13;;;;;;;34.07;22.67;;;;;;;;;;4937024;28;20780;-76
2022/01/01 03:19:43;;;;;;;35.23;21.50;;;;;;;;;;4937092;29;20230;-76
2022/01/01 03:22:11;;;;;;;30.10;20.37;;;;;;;;;;4936801;28;20634;-76
2022/01/01 03:24:36;;;;;;;30.23;20.73;;;;;;;;;;4921682;29;20239;-76
2022/01/01 03:27:06;;;;;;;35.23;21.20;;;;;;;;;;4920796;28;20239;-77
2022/01/01 03:29:34;;;;;;;32.10;21.83;;;;;;;;;;4936994;29;20231;-77
2022/01/01 03:32:00;;;;;;;30.07;20.27;;;;;;;;;;4937026;28;20219;-76
2022/01/01 03:34:28;;;;;;;33.53;20.20;;;;;;;;;;4952699;28;20236;-77
2022/01/01 03:36:56;;;;;;;33.10;20.63;;;;;;;;;;4937346;29;20255;-76
2022/01/01 03:39:27;;;;;;;32.23;20.90;;;;;;;;;;4920338;28;20238;-76
2022/01/01 03:41:57;;;;;;;36.00;21.07;;;;;;;;;;4937183;29;20226;-77
2022/01/01 03:44:27;;;;;;;34.03;20.60;;;;;;;;;;4968156;28;20244;-76
2022/01/01 03:47:06;;;;;;;35.40;20.50;;;;;;;;;;4921737;29;20226;-77
2022/01/01 03:49:31;;;;;;;35.23;21.57;;;;;;;;;;4966923;28;20222;-76
2022/01/01 03:51:59;;;;;;;33.07;21.03;;;;;;;;;;4968509;28;20309;-77
2022/01/01 03:54:27;;;;;;;38.13;21.43;;;;;;;;;;4953973;28;20227;-77
2022/01/01 03:56:52;;;;;;;33.53;20.87;;;;;;;;;;4937368;29;20766;-77
2022/01/01 03:59:20;;;;;;;34.83;21.87;;;;;;;;;;4936412;28;20290;-77
2022/01/01 04:01:48;;;;;;;32.60;22.17;;;;;;;;;;4935822;29;20226;-77
2022/01/01 04:04:13;;;;;;;30.53;22.17;;;;;;;;;;4937185;28;20246;-77
2022/01/01 04:06:41;;;;;;;32.13;22.60;;;;;;;;;;4920218;29;20265;-77
2022/01/01 04:09:11;;;;;;;34.90;23.30;;;;;;;;;;4919710;28;20238;-77
2022/01/01 04:11:41;;;;;;;33.30;21.70;;;;;;;;;;4922520;29;20226;-77
2022/01/01 04:14:16;;;;;;;36.23;22.83;;;;;;;;;;4941069;28;20227;-77
2022/01/01 04:16:42;;;;;;;35.10;22.70;;;;;;;;;;4955905;28;20274;-76
2022/01/01 04:19:10;;;;;;;35.17;22.33;;;;;;;;;;4972864;28;20302;-76
2022/01/01 04:21:36;;;;;;;37.33;22.47;;;;;;;;;;4948916;28;20231;-77
2022/01/01 04:24:02;;;;;;;31.37;22.27;;;;;;;;;;4921477;29;20250;-76
2022/01/01 04:26:28;;;;;;;38.13;22.87;;;;;;;;;;4947954;28;20230;-77
2022/01/01 04:28:53;;;;;;;36.80;22.03;;;;;;;;;;4953744;28;20464;-77
2022/01/01 04:31:21;;;;;;;37.73;22.27;;;;;;;;;;4936344;28;20226;-77
2022/01/01 04:33:47;;;;;;;35.83;21.73;;;;;;;;;;4940331;29;20229;-76
2022/01/01 04:36:13;;;;;;;32.60;20.77;;;;;;;;;;4940584;28;20250;-77
2022/01/01 04:38:44;;;;;;;34.00;21.00;;;;;;;;;;4957049;28;20611;-77
2022/01/01 04:41:16;;;;;;;31.23;20.70;;;;;;;;;;4942603;28;20289;-76
2022/01/01 04:43:42;;;;;;;35.07;20.43;;;;;;;;;;4942052;29;20226;-77
2022/01/01 04:46:08;;;;;;;34.13;21.07;;;;;;;;;;4920593;28;20294;-77
2022/01/01 04:48:37;;;;;;;32.13;19.83;;;;;;;;;;4937000;29;20247;-77
2022/01/01 04:51:07;;;;;;;33.47;20.30;;;;;;;;;;4939486;28;20223;-77
2022/01/01 04:53:34;;;;;;;33.23;20.60;;;;;;;;;;4939753;29;20297;-77
2022/01/01 04:56:06;;;;;;;34.37;20.57;;;;;;;;;;4939830;29;20223;-75
2022/01/01 04:58:37;;;;;;;33.80;20.90;;;;;;;;;;4956207;28;20250;-76
2022/01/01 05:01:02;;;;;;;32.27;21.13;;;;;;;;;;4939982;28;20219;-75
2022/01/01 05:03:28;;;;;;;36.20;21.53;;;;;;;;;;4938704;29;20712;-76
2022/01/01 05:05:53;;;;;;;34.77;21.67;;;;;;;;;;4955012;28;20234;-76
2022/01/01 05:08:19;;;;;;;35.57;21.67;;;;;;;;;;4938817;28;20302;-76
2022/01/01 05:10:47;;;;;;;33.43;20.77;;;;;;;;;;4971570;28;20223;-76
2022/01/01 05:13:16;;;;;;;37.10;22.53;;;;;;;;;;4954123;28;20285;-76
2022/01/01 05:15:44;;;;;;;37.33;22.70;;;;;;;;;;4955241;28;20222;-76
2022/01/01 05:18:16;;;;;;;34.33;22.63;;;;;;;;;;4939321;28;20749;-76
2022/01/01 05:20:43;;;;;;;37.70;22.47;;;;;;;;;;4939146;29;20226;-76
2022/01/01 05:23:09;;;;;;;38.03;23.70;;;;;;;;;;4938727;28;20223;-76
2022/01/01 05:25:37;;;;;;;35.20;22.57;;;;;;;;;;4938979;29;20625;-76
2022/01/01 05:28:04;;;;;;;34.90;21.77;;;;;;;;;;4938110;28;20230;-74
2022/01/01 05:30:30;;;;;;;37.10;22.17;;;;;;;;;;4923169;29;20246;-76
2022/01/01 05:32:58;;;;;;;41.57;22.63;;;;;;;;;;4918333;29;20685;-78
2022/01/01 05:35:26;;;;;;;37.10;22.37;;;;;;;;;;4936451;28;20224;-75
2022/01/01 05:37:53;;;;;;;46.27;24.73;;;;;;;;;;4939730;29;20242;-78
2022/01/01 05:40:23;;;;;;;42.67;24.10;;;;;;;;;;4925014;28;20769;-77
2022/01/01 05:42:51;;;;;;;41.67;24.57;;;;;;;;;;4960364;28;20302;-78
2022/01/01 05:45:17;;;;;;;40.70;24.47;;;;;;;;;;4925564;28;20238;-77
2022/01/01 05:47:44;;;;;;;39.27;25.17;;;;;;;;;;4955779;28;20246;-77
2022/01/01 05:50:10;;;;;;;43.57;25.20;;;;;;;;;;4954474;28;20648;-77
2022/01/01 05:52:35;;;;;;;46.50;25.57;;;;;;;;;;4954627;28;20321;-77
2022/01/01 05:55:01;;;;;;;44.10;25.33;;;;;;;;;;4939439;29;20230;-78
2022/01/01 05:57:26;;;;;;;46.40;25.63;;;;;;;;;;4937957;29;20265;-76
2022/01/01 05:59:52;;;;;;;41.33;25.57;;;;;;;;;;4955540;28;20314;-79
2022/01/01 06:02:17;;;;;;;41.47;24.53;;;;;;;;;;4970513;28;20215;-78
2022/01/01 06:04:45;;;;;;;40.77;25.43;;;;;;;;;;4923128;29;20768;-75
2022/01/01 06:07:11;;;;;;;39.80;24.97;;;;;;;;;;4956209;28;20715;-77
2022/01/01 06:09:37;;;;;;;39.77;25.70;;;;;;;;;;4954781;28;20222;-77
2022/01/01 06:12:02;;;;;;;44.80;24.73;;;;;;;;;;4955314;28;20713;-76
2022/01/01 06:14:30;;;;;;;39.93;25.10;;;;;;;;;;4970083;28;20215;-77
2022/01/01 06:16:58;;;;;;;44.10;24.70;;;;;;;;;;4923365;29;20705;-77
2022/01/01 06:19:23;;;;;;;42.27;25.77;;;;;;;;;;4937320;28;20226;-77
2022/01/01 06:21:49;;;;;;;42.40;25.93;;;;;;;;;;4921512;29;20329;-77
2022/01/01 06:24:14;;;;;;;44.60;26.73;;;;;;;;;;4921824;28;20317;-76
2022/01/01 06:26:40;;;;;;;45.03;26.20;;;;;;;;;;4922268;29;20770;-77
2022/01/01 06:29:06;;;;;;;46.80;27.00;;;;;;;;;;4934328;28;20231;-77
2022/01/01 06:31:32;;;;;;;46.20;27.63;;;;;;;;;;4947868;28;20673;-77
2022/01/01 06:33:59;;;;;;;49.33;28.37;;;;;;;;;;4952040;28;20261;-76
2022/01/01 06:36:25;;;;;;;41.87;26.23;;;;;;;;;;4952826;28;20237;-77
2022/01/01 06:38:51;;;;;;;45.80;28.17;;;;;;;;;;4947261;28;20318;-77
2022/01/01 06:41:18;;;;;;;48.20;28.47;;;;;;;;;;4918850;28;20227;-77
2022/01/01 06:43:45;;;;;;;47.00;28.30;;;;;;;;;;4904726;29;20247;-76
2022/01/01 06:46:11;;;;;;;51.77;29.17;;;;;;;;;;4934765;28;20215;-77
2022/01/01 06:48:38;;;;;;;50.20;29.60;;;;;;;;;;4937940;29;20317;-76
2022/01/01 06:51:08;;;;;;;47.90;28.57;;;;;;;;;;4937367;28;20616;-76
2022/01/01 06:53:38;;;;;;;51.17;29.43;;;;;;;;;;4943037;28;20665;-76
2022/01/01 06:56:10;;;;;;;52.47;29.80;;;;;;;;;;4918042;28;20260;-76
2022/01/01 06:58:39;;;;;;;47.03;29.73;;;;;;;;;;4937528;29;20297;-77
2022/01/01 07:01:07;;;;;;;55.27;29.63;;;;;;;;;;4921406;28;20223;-77
2022/01/01 07:03:33;;;;;;;57.63;31.97;;;;;;;;;;4968501;28;20222;-76
2022/01/01 07:05:58;;;;;;;54.73;32.73;;;;;;;;;;4937227;28;20232;-76
2022/01/01 07:08:23;;;;;;;50.23;31.47;;;;;;;;;;4920427;28;20696;-77
2022/01/01 07:10:52;;;;;;;55.13;33.67;;;;;;;;;;4906558;29;20738;-76
2022/01/01 07:13:20;;;;;;;57.83;33.80;;;;;;;;;;4936299;28;20317;-76
2022/01/01 07:15:48;;;;;;;54.50;32.83;;;;;;;;;;4953286;28;20219;-76
2022/01/01 07:18:13;;;;;;;62.20;34.60;;;;;;;;;;4920316;28;20226;-76
2022/01/01 07:20:41;;;;;;;58.23;33.30;;;;;;;;;;4952477;28;20270;-76
2022/01/01 07:23:07;;;;;;;57.90;34.87;;;;;;;;;;4917331;28;20717;-77
2022/01/01 07:25:34;;;;;;;55.10;33.87;;;;;;;;;;4918134;29;20238;-77
2022/01/01 07:28:03;;;;;;;58.67;36.13;;;;;;;;;;4936067;28;20218;-77
2022/01/01 07:30:28;;;;;;;62.63;37.10;;;;;;;;;;4952702;28;20219;-77
2022/01/01 07:32:55;;;;;;;63.47;37.10;;;;;;;;;;4952725;28;20700;-76
2022/01/01 07:35:32;;;;;;;63.23;38.20;;;;;;;;;;4936521;28;20226;-77
2022/01/01 07:38:00;;;;;;;64.60;39.40;;;;;;;;;;4937897;29;20516;-77
2022/01/01 07:40:26;;;;;;;62.53;37.53;;;;;;;;;;4923658;28;20310;-77
2022/01/01 07:42:54;;;;;;;64.57;39.27;;;;;;;;;;4933361;29;20225;-77
2022/01/01 07:45:19;;;;;;;65.67;39.27;;;;;;;;;;4968033;28;20692;-76
2022/01/01 07:47:47;;;;;;;58.00;38.93;;;;;;;;;;4920781;29;20253;-76
2022/01/01 07:50:15;;;;;;;59.20;37.67;;;;;;;;;;4931419;28;20243;-76
2022/01/01 07:52:48;;;;;;;69.53;39.67;;;;;;;;;;4918368;29;20227;-76
2022/01/01 07:55:16;;;;;;;66.43;39.00;;;;;;;;;;4931617;28;20254;-77
2022/01/01 07:57:44;;;;;;;62.40;39.53;;;;;;;;;;4933439;29;20259;-77
2022/01/01 08:00:10;;;;;;;64.93;39.07;;;;;;;;;;4925778;28;20255;-76
2022/01/01 08:02:43;;;;;;;62.33;37.47;;;;;;;;;;4940421;28;20215;-76
2022/01/01 08:05:10;;;;;;;61.17;38.60;;;;;;;;;;4944590;28;20235;-77
2022/01/01 08:07:35;;;;;;;66.57;38.93;;;;;;;;;;4917520;29;20687;-76
2022/01/01 08:10:04;;;;;;;63.23;37.47;;;;;;;;;;4945408;28;20319;-76
2022/01/01 08:12:32;;;;;;;63.57;38.23;;;;;;;;;;4951717;28;20227;-77
2022/01/01 08:14:57;;;;;;;60.20;37.97;;;;;;;;;;4952696;28;20226;-77
2022/01/01 08:17:25;;;;;;;61.43;35.77;;;;;;;;;;4920306;28;20317;-77
2022/01/01 08:19:53;;;;;;;57.97;34.87;;;;;;;;;;4937229;29;20669;-77
2022/01/01 08:22:21;;;;;;;58.80;36.07;;;;;;;;;;4921074;28;20223;-77
2022/01/01 08:24:50;;;;;;;60.13;36.63;;;;;;;;;;4937041;29;20214;-77
2022/01/01 08:27:15;;;;;;;60.67;35.97;;;;;;;;;;4953757;28;20219;-77
2022/01/01 08:29:41;;;;;;;61.93;36.77;;;;;;;;;;4920750;29;20791;-77
2022/01/01 08:32:10;;;;;;;58.10;35.80;;;;;;;;;;4951366;28;20581;-77
2022/01/01 08:34:35;;;;;;;66.83;36.83;;;;;;;;;;4936882;29;20258;-77
2022/01/01 08:37:01;;;;;;;67.47;36.93;;;;;;;;;;4928108;29;20251;-77
2022/01/01 08:39:26;;;;;;;66.10;37.03;;;;;;;;;;4967547;28;20229;-76
2022/01/01 08:41:52;;;;;;;62.37;36.00;;;;;;;;;;4921809;29;20226;-76
2022/01/01 08:44:20;;;;;;;55.63;35.57;;;;;;;;;;4953840;28;20258;-76
2022/01/01 08:46:51;;;;;;;66.00;36.43;;;;;;;;;;4937131;29;20226;-76
2022/01/01 08:49:19;;;;;;;59.17;36.00;;;;;;;;;;4951421;28;20227;-76
2022/01/01 08:51:47;;;;;;;69.83;37.40;;;;;;;;;;4951450;28;20242;-75
2022/01/01 08:54:14;;;;;;;60.63;36.90;;;;;;;;;;4951162;28;20298;-76
2022/01/01 08:56:42;;;;;;;62.27;36.90;;;;;;;;;;4951280;28;20230;-76
2022/01/01 08:59:10;;;;;;;54.60;35.90;;;;;;;;;;4934926;28;20238;-76
2022/01/01 09:01:38;;;;;;;61.13;35.90;;;;;;;;;;4936287;29;20313;-77
2022/01/01 09:04:08;;;;;;;56.50;34.83;;;;;;;;;;4951457;28;20724;-77
2022/01/01 09:06:34;;;;;;;63.07;35.27;;;;;;;;;;4952075;28;20238;-77
2022/01/01 09:09:00;;;;;;;65.27;35.83;;;;;;;;;;4936248;29;20234;-77
2022/01/01 09:11:25;;;;;;;64.90;35.20;;;;;;;;;;4945377;28;20299;-79
2022/01/01 09:13:53;;;;;;;62.60;36.83;;;;;;;;;;4917631;29;20247;-77
2022/01/01 09:16:25;;;;;;;64.37;37.63;;;;;;;;;;4931167;28;20237;-77
2022/01/01 09:18:50;;;;;;;60.57;36.37;;;;;;;;;;4954150;28;20230;-77
2022/01/01 09:21:18;;;;;;;59.37;37.00;;;;;;;;;;4923384;28;20277;-76
2022/01/01 09:23:49;;;;;;;60.53;35.00;;;;;;;;;;4924484;29;20230;-77
2022/01/01 09:26:21;;;;;;;63.27;35.87;;;;;;;;;;4939692;28;20790;-76
2022/01/01 09:28:46;;;;;;;55.37;35.13;;;;;;;;;;4940138;29;20233;-78
2022/01/01 09:31:12;;;;;;;51.10;33.80;;;;;;;;;;4924594;28;20215;-77
2022/01/01 09:33:37;;;;;;;56.77;33.53;;;;;;;;;;4956452;28;20306;-76
2022/01/01 09:36:05;;;;;;;56.07;35.43;;;;;;;;;;4941493;28;20373;-77
2022/01/01 09:38:33;;;;;;;57.20;33.50;;;;;;;;;;4928182;29;20259;-77
2022/01/01 09:40:59;;;;;;;52.50;34.93;;;;;;;;;;4959418;28;20227;-76
2022/01/01 09:43:29;;;;;;;56.50;34.97;;;;;;;;;;4956757;28;20223;-76
2022/01/01 09:45:55;;;;;;;52.60;34.50;;;;;;;;;;4940668;29;20234;-76
2022/01/01 09:48:23;;;;;;;55.47;36.77;;;;;;;;;;4923624;28;20231;-77
2022/01/01 09:50:49;;;;;;;55.03;36.67;;;;;;;;;;4955777;28;20732;-76
2022/01/01 09:53:17;;;;;;;54.93;35.57;;;;;;;;;;4922528;28;20222;-77
2022/01/01 09:55:45;;;;;;;54.13;36.97;;;;;;;;;;4957053;28;20215;-77
2022/01/01 09:58:11;;;;;;;56.33;36.53;;;;;;;;;;4938895;28;20297;-76
2022/01/01 10:00:37;;;;;;;52.23;34.97;;;;;;;;;;4938617;29;20262;-77
2022/01/01 10:03:08;;;;;;;59.17;36.23;;;;;;;;;;4938109;28;20253;-77
2022/01/01 10:05:33;;;;;;;46.47;34.47;;;;;;;;;;4955490;28;20246;-77
2022/01/01 10:08:02;;;;;;;54.23;35.33;;;;;;;;;;4923219;29;20767;-77
2022/01/01 10:10:28;;;;;;;50.43;33.70;;;;;;;;;;4953751;28;20230;-77
2022/01/01 10:13:03;;;;;;;52.67;34.33;;;;;;;;;;4953092;28;20764;-74
2022/01/01 10:15:35;;;;;;;46.90;30.63;;;;;;;;;;4937182;28;20709;-75
2022/01/01 10:18:08;;;;;;;47.17;32.37;;;;;;;;;;4950262;28;20321;-72
2022/01/01 10:20:43;;;;;;;44.57;31.20;;;;;;;;;;4906301;29;20238;-74
2022/01/01 10:23:14;;;;;;;43.83;29.27;;;;;;;;;;4934416;28;20225;-73
2022/01/01 10:28:24;;;;;;;40.03;26.60;;;;;;;;;;4937053;28;20227;-73
2022/01/01 10:30:52;;;;;;;41.63;27.17;;;;;;;;;;4934997;29;20322;-75
2022/01/01 10:33:20;;;;;;;39.00;27.60;;;;;;;;;;4936396;28;20712;-75
2022/01/01 10:35:49;;;;;;;39.37;25.70;;;;;;;;;;4970173;28;20223;-74
2022/01/01 10:38:28;;;;;;;38.63;25.73;;;;;;;;;;4952899;28;20253;-76
2022/01/01 10:41:09;;;;;;;40.87;26.00;;;;;;;;;;4925383;29;20226;-76
2022/01/01 10:43:41;;;;;;;35.57;25.40;;;;;;;;;;4944087;29;20230;-80
2022/01/01 10:46:14;;;;;;;42.87;26.30;;;;;;;;;;4958333;28;20286;-80
2022/01/01 10:48:58;;;;;;;37.07;24.40;;;;;;;;;;4963864;28;20231;-82
2022/01/01 10:51:38;;;;;;;37.33;24.60;;;;;;;;;;4944981;28;20218;-79
2022/01/01 10:54:08;;;;;;;38.47;22.97;;;;;;;;;;4959440;28;20223;-80
2022/01/01 10:56:39;;;;;;;38.17;24.07;;;;;;;;;;4944072;29;20230;-80
2022/01/01 10:59:11;;;;;;;35.40;22.60;;;;;;;;;;4925267;28;20674;-79
2022/01/01 11:01:41;;;;;;;33.73;22.40;;;;;;;;;;4914776;29;20255;-81
2022/01/01 11:04:08;;;;;;;34.57;21.83;;;;;;;;;;4929684;28;20227;-80
2022/01/01 11:06:41;;;;;;;34.27;20.40;;;;;;;;;;4960555;28;20242;-80
2022/01/01 11:09:13;;;;;;;33.83;21.30;;;;;;;;;;4941013;28;20692;-78
2022/01/01 11:11:41;;;;;;;30.53;21.13;;;;;;;;;;4940134;28;20322;-78
2022/01/01 11:14:11;;;;;;;30.43;20.60;;;;;;;;;;4940021;28;20230;-77
2022/01/01 11:16:41;;;;;;;32.33;20.73;;;;;;;;;;4958899;28;20242;-80
2022/01/01 11:19:09;;;;;;;30.30;19.83;;;;;;;;;;4941167;28;20747;-76
2022/01/01 11:21:37;;;;;;;29.57;19.87;;;;;;;;;;4938538;29;20227;-79
2022/01/01 11:24:05;;;;;;;32.90;20.87;;;;;;;;;;4956441;28;20233;-79
2022/01/01 11:26:33;;;;;;;30.50;20.93;;;;;;;;;;4944426;29;20230;-81
2022/01/01 11:28:59;;;;;;;31.03;21.37;;;;;;;;;;4957219;28;20230;-80
2022/01/01 11:31:27;;;;;;;36.70;23.47;;;;;;;;;;4940620;28;20222;-79
2022/01/01 11:33:55;;;;;;;39.53;22.27;;;;;;;;;;4941746;29;20227;-80
2022/01/01 11:36:22;;;;;;;35.27;23.57;;;;;;;;;;4943672;28;20242;-80
2022/01/01 11:38:53;;;;;;;38.33;22.97;;;;;;;;;;4928544;29;20226;-78
2022/01/01 11:41:23;;;;;;;35.60;23.73;;;;;;;;;;4953994;28;20218;-80
2022/01/01 11:43:52;;;;;;;34.43;24.57;;;;;;;;;;4940553;29;20227;-80
2022/01/01 11:46:33;;;;;;;35.50;24.17;;;;;;;;;;4950522;28;20709;-79
2022/01/01 11:48:59;;;;;;;36.10;24.50;;;;;;;;;;4936705;29;20636;-78
2022/01/01 11:51:35;;;;;;;38.23;25.90;;;;;;;;;;4940284;29;20231;-80
2022/01/01 11:54:17;;;;;;;38.63;23.53;;;;;;;;;;4934368;28;20226;-78
2022/01/01 11:56:48;;;;;;;44.30;28.03;;;;;;;;;;4958966;28;20235;-79
2022/01/01 11:59:20;;;;;;;49.97;32.07;;;;;;;;;;4954688;28;20249;-79
2022/01/01 12:01:47;;;;;;;31.53;24.40;;;;;;;;;;4939077;29;20233;-76
2022/01/01 12:04:27;;;;;;;41.67;26.83;;;;;;;;;;4952367;28;21193;-77
2022/01/01 12:06:57;;;;;;;35.63;24.10;;;;;;;;;;4967569;28;20230;-76
2022/01/01 12:09:23;;;;;;;33.77;23.30;;;;;;;;;;4921731;28;20231;-79
2022/01/01 12:11:57;;;;;;;31.50;22.80;;;;;;;;;;4905924;29;20247;-77
2022/01/01 12:14:28;;;;;;;31.77;23.00;;;;;;;;;;4956475;28;20215;-77
2022/01/01 12:16:58;;;;;;;34.03;23.60;;;;;;;;;;4943962;28;20247;-76
2022/01/01 12:19:27;;;;;;;30.63;22.03;;;;;;;;;;4935231;28;20227;-78
2022/01/01 12:22:08;;;;;;;32.13;21.93;;;;;;;;;;4942226;28;20229;-77
2022/01/01 12:24:41;;;;;;;34.80;24.67;;;;;;;;;;4951344;28;20258;-75
2022/01/01 12:27:11;;;;;;;38.97;23.87;;;;;;;;;;4941389;28;20309;-76
2022/01/01 12:29:37;;;;;;;34.07;23.10;;;;;;;;;;4939825;28;20604;-77
2022/01/01 12:32:08;;;;;;;37.13;25.10;;;;;;;;;;4951343;28;20320;-77
2022/01/01 12:34:36;;;;;;;35.13;26.08;;;;;;;;;;4956503;28;20440;-77
2022/01/01 12:37:07;;;;;;;31.73;23.13;;;;;;;;;;4955211;28;20249;-78
2022/01/01 12:39:57;;;;;;;33.03;22.17;;;;;;;;;;4955546;28;20230;-78
2022/01/01 12:42:32;;;;;;;33.40;23.13;;;;;;;;;;4936365;28;20689;-77
2022/01/01 12:45:03;;;;;;;31.75;20.70;;;;;;;;;;4955949;28;20232;-77
2022/01/01 12:47:29;;;;;;;30.40;21.13;;;;;;;;;;4937125;29;20278;-77
2022/01/01 12:49:58;;;;;;;32.10;21.50;;;;;;;;;;4954792;28;20673;-76
2022/01/01 12:52:28;;;;;;;31.00;20.83;;;;;;;;;;4939160;28;20226;-76
2022/01/01 12:55:02;;;;;;;30.90;21.50;;;;;;;;;;4941738;29;20230;-77
2022/01/01 12:57:31;;;;;;;29.40;21.47;;;;;;;;;;4924993;29;20289;-77
2022/01/01 13:00:02;;;;;;;28.13;20.60;;;;;;;;;;4957809;28;20298;-80
2022/01/01 13:02:30;;;;;;;27.40;20.20;;;;;;;;;;4943680;28;20707;-81
2022/01/01 13:05:03;;;;;;;29.10;20.40;;;;;;;;;;4955630;28;20229;-80
2022/01/01 13:07:31;;;;;;;31.17;20.33;;;;;;;;;;4943116;29;20728;-81
2022/01/01 13:10:00;;;;;;;33.43;21.10;;;;;;;;;;4925381;29;20243;-80
2022/01/01 13:12:34;;;;;;;29.50;19.93;;;;;;;;;;4935407;28;20590;-80
2022/01/01 13:15:02;;;;;;;29.37;20.00;;;;;;;;;;4926064;29;20246;-79
2022/01/01 13:17:28;;;;;;;27.90;20.17;;;;;;;;;;4932374;29;20227;-81
2022/01/01 13:19:54;;;;;;;30.58;19.17;;;;;;;;;;4950424;28;20758;-80
2022/01/01 13:22:30;;;;;;;29.08;19.02;;;;;;;;;;4961119;28;20223;-81
2022/01/01 13:25:01;;;;;;;29.58;19.05;;;;;;;;;;4959233;28;20226;-80
2022/01/01 13:27:30;;;;;;;27.17;19.25;;;;;;;;;;4927695;29;20230;-81
2022/01/01 13:29:55;;;;;;;30.33;19.20;;;;;;;;;;4942363;29;20230;-81
2022/01/01 13:32:21;;;;;;;29.90;18.53;;;;;;;;;;4939945;28;20306;-79
2022/01/01 13:34:53;;;;;;;27.70;18.83;;;;;;;;;;4942074;28;20234;-80
2022/01/01 13:37:27;;;;;;;29.77;18.10;;;;;;;;;;4935586;28;20362;-80
2022/01/01 13:39:58;;;;;;;27.90;17.97;;;;;;;;;;4946450;29;20293;-80
2022/01/01 13:42:23;;;;;;;22.83;16.63;;;;;;;;;;4936147;28;20301;-80
2022/01/01 13:44:53;;;;;;;26.27;16.87;;;;;;;;;;4943941;29;20247;-79
2022/01/01 13:47:28;;;;;;;24.30;16.87;;;;;;;;;;4922418;28;20286;-80
2022/01/01 13:49:58;;;;;;;24.73;16.60;;;;;;;;;;4924792;29;20859;-79
2022/01/01 13:52:28;;;;;;;23.00;14.57;;;;;;;;;;4925891;28;20223;-79
2022/01/01 13:54:55;;;;;;;21.97;14.63;;;;;;;;;;4941102;29;20254;-75
2022/01/01 13:57:22;;;;;;;25.50;15.50;;;;;;;;;;4929533;28;20235;-76
2022/01/01 13:59:52;;;;;;;24.93;15.80;;;;;;;;;;4921069;29;20231;-74
2022/01/01 14:02:26;;;;;;;25.13;15.13;;;;;;;;;;4950518;28;20226;-77
2022/01/01 14:04:56;;;;;;;23.73;14.90;;;;;;;;;;4946499;28;20644;-78
2022/01/01 14:07:24;;;;;;;23.40;15.13;;;;;;;;;;4944314;28;20219;-77
2022/01/01 14:10:02;;;;;;;21.70;14.23;;;;;;;;;;4965829;28;20230;-79
2022/01/01 14:12:34;;;;;;;21.20;13.47;;;;;;;;;;4965373;28;20290;-78
2022/01/01 14:15:21;;;;;;;20.30;13.33;;;;;;;;;;4953789;28;20297;-77
2022/01/01 14:18:09;;;;;;;20.53;13.93;;;;;;;;;;4920693;29;20242;-78
2022/01/01 14:20:44;;;;;;;21.90;13.40;;;;;;;;;;4934151;28;20222;-78
2022/01/01 14:23:33;;;;;;;21.00;13.43;;;;;;;;;;4956911;28;20254;-77
2022/01/01 14:25:59;;;;;;;20.67;13.47;;;;;;;;;;4952485;28;20318;-78
2022/01/01 14:28:27;;;;;;;20.90;13.43;;;;;;;;;;4954145;28;20595;-74
2022/01/01 14:30:58;;;;;;;18.70;12.33;;;;;;;;;;4948534;28;20227;-78
2022/01/01 14:33:26;;;;;;;21.50;13.30;;;;;;;;;;4950984;28;20290;-77